Time;durP1;ratioP1;P1;durP2;ratioP2;P2;SDS_P1;SDS_P2;PMS_P1;PMS_P2;Temp;Humidity;BMP_temperature;BMP_pressure;BME280_temperature;BME280_humidity;BME280_pressure;Samples;Min_cycle;Max_cycle;Signal;HPM_P1;HPM_P2
2022/08/18 00:00:08;;;;;;;2.17;2.07;;;35.80;53.50;;;;;;5115114;27;20513;-64
2022/08/18 00:02:48;;;;;;;1.77;1.67;;;35.70;53.60;;;;;;5118058;27;20481;-64
2022/08/18 00:05:39;;;;;;;2.90;2.00;;;35.50;55.80;;;;;;5121358;27;20536;-63
2022/08/18 00:08:12;;;;;;;2.30;2.20;;;35.30;55.90;;;;;;5120574;27;20475;-63
2022/08/18 00:10:43;;;;;;;2.40;2.30;;;35.30;55.10;;;;;;5134419;27;20451;-63
2022/08/18 00:13:14;;;;;;;2.13;2.00;;;35.50;54.50;;;;;;5120861;27;20480;-63
2022/08/18 00:15:45;;;;;;;2.80;2.60;;;35.70;54.00;;;;;;5120578;27;21425;-63
2022/08/18 00:18:20;;;;;;;2.43;2.27;;;35.80;55.50;;;;;;5122410;27;20457;-63
2022/08/18 00:20:51;;;;;;;3.03;2.83;;;35.80;56.30;;;;;;5117843;27;20561;-63
2022/08/18 00:23:22;;;;;;;2.20;2.10;;;36.00;55.10;;;;;;5119001;27;20457;-62
2022/08/18 00:25:53;;;;;;;2.60;2.40;;;36.00;54.40;;;;;;5117733;28;20517;-63
2022/08/18 00:28:24;;;;;;;2.63;2.43;;;36.10;52.70;;;;;;5113566;27;20516;-63
2022/08/18 00:30:55;;;;;;;2.40;2.30;;;36.10;55.10;;;;;;5117897;27;20460;-64
2022/08/18 00:33:28;;;;;;;2.20;2.10;;;36.00;54.70;;;;;;5122795;27;20487;-64
2022/08/18 00:35:59;;;;;;;2.10;2.00;;;35.90;55.90;;;;;;5116158;27;20463;-64
2022/08/18 00:38:30;;;;;;;2.90;2.70;;;35.70;55.20;;;;;;5118886;28;20461;-63
2022/08/18 00:41:03;;;;;;;2.37;2.17;;;35.60;54.20;;;;;;5121796;27;20517;-64
2022/08/18 00:43:42;;;;;;;2.03;1.93;;;35.40;55.00;;;;;;5106512;28;20462;-64
2022/08/18 00:46:18;;;;;;;2.40;2.30;;;35.20;56.70;;;;;;5121056;28;20488;-62
2022/08/18 00:48:51;;;;;;;2.83;2.63;;;34.90;57.00;;;;;;5116909;28;20465;-62
2022/08/18 00:51:27;;;;;;;2.50;2.30;;;34.80;57.40;;;;;;5124190;27;20475;-67
2022/08/18 00:54:02;;;;;;;2.90;2.70;;;34.60;55.50;;;;;;5122754;28;20520;-62
2022/08/18 00:56:38;;;;;;;3.33;3.07;;;34.50;56.00;;;;;;5123185;28;20456;-63
2022/08/18 00:59:15;;;;;;;3.03;2.77;;;34.40;56.50;;;;;;5119649;27;20461;-63
2022/08/18 01:01:47;;;;;;;3.10;2.90;;;34.30;56.00;;;;;;5119160;27;20504;-65
2022/08/18 01:04:25;;;;;;;2.97;2.77;;;34.20;56.20;;;;;;5124305;27;20484;-65
2022/08/18 01:07:01;;;;;;;2.93;2.73;;;34.10;56.00;;;;;;5132503;27;20483;-65
2022/08/18 01:09:32;;;;;;;3.27;3.00;;;33.90;56.90;;;;;;5130142;27;20454;-65
2022/08/18 01:12:03;;;;;;;2.70;2.50;;;33.70;58.20;;;;;;5118848;27;20458;-64
2022/08/18 01:14:55;;;;;;;3.23;3.03;;;33.60;57.50;;;;;;5122940;28;20525;-64
2022/08/18 01:23:16;;;;;;;2.93;2.73;;;33.50;58.20;;;;;;5127892;27;20460;-65
2022/08/18 01:25:59;;;;;;;3.07;2.87;;;33.40;59.30;;;;;;5128134;28;20479;-63
2022/08/18 01:28:32;;;;;;;3.87;3.57;;;33.30;58.90;;;;;;5132894;27;20464;-63
2022/08/18 01:31:04;;;;;;;3.90;3.70;;;33.30;58.80;;;;;;5128298;28;20452;-63
2022/08/18 01:33:37;;;;;;;3.83;3.53;;;33.20;60.00;;;;;;5127429;27;20489;-64
2022/08/18 01:36:15;;;;;;;4.00;3.70;;;33.30;59.20;;;;;;5119375;28;20461;-64
2022/08/18 01:38:49;;;;;;;4.40;4.10;;;33.40;59.30;;;;;;5116141;28;20460;-64
2022/08/18 01:41:22;;;;;;;4.20;3.90;;;33.40;59.00;;;;;;5123138;28;20670;-64
2022/08/18 01:44:00;;;;;;;4.73;4.33;;;33.40;59.70;;;;;;5120440;28;20453;-64
2022/08/18 01:46:33;;;;;;;4.73;4.40;;;33.40;59.30;;;;;;5134889;28;20453;-63
2022/08/18 01:49:07;;;;;;;5.07;4.67;;;33.30;61.50;;;;;;5122281;28;20445;-63
2022/08/18 01:51:40;;;;;;;5.63;5.23;;;33.20;63.10;;;;;;5125737;27;20509;-63
2022/08/18 01:54:15;;;;;;;6.43;5.93;;;33.10;62.60;;;;;;5123324;28;20457;-64
2022/08/18 01:56:47;;;;;;;5.80;5.40;;;33.30;61.70;;;;;;5122333;28;20475;-64
2022/08/18 01:59:18;;;;;;;6.30;5.80;;;33.30;60.80;;;;;;5132204;28;20453;-65
2022/08/18 02:01:51;;;;;;;6.67;6.17;;;33.40;61.60;;;;;;5131895;28;20529;-63
2022/08/18 02:04:26;;;;;;;7.17;6.53;;;33.40;59.20;;;;;;5123700;27;20485;-63
2022/08/18 02:07:09;;;;;;;7.80;7.20;;;33.50;59.20;;;;;;5131651;28;20460;-63
2022/08/18 02:09:44;;;;;;;7.00;6.50;;;33.50;60.80;;;;;;5137930;27;21043;-64
2022/08/18 02:12:20;;;;;;;6.17;5.67;;;33.40;59.90;;;;;;5114080;28;20432;-64
2022/08/18 02:14:52;;;;;;;7.03;6.43;;;33.40;58.80;;;;;;5120325;28;20568;-64
2022/08/18 02:17:23;;;;;;;7.20;6.50;;;33.20;58.80;;;;;;5120030;28;20448;-64
2022/08/18 02:19:54;;;;;;;7.23;6.63;;;33.00;60.00;;;;;;5130121;28;20966;-64
2022/08/18 02:22:25;;;;;;;5.60;5.20;;;32.80;60.50;;;;;;5121311;28;20481;-63
2022/08/18 02:24:58;;;;;;;6.33;5.83;;;32.60;61.10;;;;;;5111369;28;20476;-64
2022/08/18 02:27:30;;;;;;;6.17;5.77;;;32.50;61.30;;;;;;5112173;28;21156;-65
2022/08/18 02:30:05;;;;;;;5.77;5.33;;;32.40;61.30;;;;;;5124511;28;20436;-64
2022/08/18 02:32:36;;;;;;;5.50;5.00;;;32.20;61.80;;;;;;5120853;28;20492;-64
2022/08/18 02:35:09;;;;;;;5.33;4.93;;;32.20;61.80;;;;;;5118417;28;20545;-64
2022/08/18 02:37:41;;;;;;;5.53;5.13;;;32.10;62.50;;;;;;5124920;27;20475;-64
2022/08/18 02:40:14;;;;;;;5.73;5.23;;;31.90;64.10;;;;;;5138904;27;20446;-65
2022/08/18 02:42:47;;;;;;;5.50;5.10;;;31.90;65.60;;;;;;5125355;27;20487;-65
2022/08/18 02:45:18;;;;;;;5.60;5.20;;;31.80;64.80;;;;;;5125327;28;20449;-64
2022/08/18 02:47:54;;;;;;;5.77;5.27;;;31.80;64.90;;;;;;5111282;27;20460;-65
2022/08/18 02:50:25;;;;;;;5.17;4.77;;;31.70;65.10;;;;;;5142997;27;20485;-65
2022/08/18 02:52:56;;;;;;;5.57;5.07;;;31.60;63.70;;;;;;5145093;27;20519;-65
2022/08/18 02:55:31;;;;;;;5.23;4.83;;;31.60;64.10;;;;;;5145455;27;20455;-64
2022/08/18 02:58:02;;;;;;;4.77;4.27;;;31.40;64.70;;;;;;5121363;27;20466;-64
2022/08/18 03:00:33;;;;;;;5.70;5.20;;;31.20;65.10;;;;;;5128475;27;20461;-64
2022/08/18 03:03:07;;;;;;;4.30;4.00;;;31.10;65.80;;;;;;5112914;27;20468;-66
2022/08/18 03:05:38;;;;;;;4.77;4.47;;;31.00;65.90;;;;;;5120641;27;21007;-65
2022/08/18 03:08:10;;;;;;;4.60;4.20;;;30.90;67.30;;;;;;5126467;27;20453;-64
2022/08/18 03:10:44;;;;;;;4.37;4.07;;;30.70;68.30;;;;;;5131887;27;22133;-63
2022/08/18 03:13:15;;;;;;;4.20;3.87;;;30.80;65.80;;;;;;5134337;27;20473;-66
2022/08/18 03:15:46;;;;;;;4.07;3.77;;;30.80;65.80;;;;;;5123792;27;20453;-65
2022/08/18 03:18:22;;;;;;;3.70;3.40;;;30.80;65.80;;;;;;5120118;28;20479;-65
2022/08/18 03:20:53;;;;;;;4.13;3.83;;;30.90;65.40;;;;;;5130348;27;20796;-65
2022/08/18 03:23:24;;;;;;;4.00;3.70;;;31.00;66.10;;;;;;5123038;27;20538;-64
2022/08/18 03:26:00;;;;;;;3.80;3.50;;;31.00;65.90;;;;;;5129254;27;20448;-64
2022/08/18 03:28:32;;;;;;;3.40;3.13;;;31.00;65.40;;;;;;5118584;27;20457;-64
2022/08/18 03:31:03;;;;;;;3.67;3.47;;;31.00;65.00;;;;;;5126940;27;20470;-64
2022/08/18 03:33:34;;;;;;;3.30;3.10;;;31.00;64.70;;;;;;5117629;28;20489;-64
2022/08/18 03:36:06;;;;;;;3.67;3.37;;;30.90;66.80;;;;;;5112625;27;20459;-63
2022/08/18 03:38:37;;;;;;;3.23;2.93;;;30.80;67.90;;;;;;5113765;27;20504;-63
2022/08/18 03:41:11;;;;;;;3.27;2.97;;;30.70;67.20;;;;;;5137038;27;20525;-62
2022/08/18 03:43:42;;;;;;;3.60;3.30;;;30.60;68.30;;;;;;5121713;27;20484;-62
2022/08/18 03:46:22;;;;;;;3.60;3.30;;;30.40;69.80;;;;;;5130682;27;20444;-61
2022/08/18 03:48:53;;;;;;;3.97;3.60;;;30.30;68.60;;;;;;5118850;27;20515;-62
2022/08/18 03:51:26;;;;;;;3.37;3.07;;;30.20;70.90;;;;;;5124671;27;20492;-62
2022/08/18 03:53:59;;;;;;;3.23;3.03;;;30.10;70.00;;;;;;5124589;28;20455;-62
2022/08/18 03:56:33;;;;;;;3.27;2.97;;;30.00;70.70;;;;;;5122645;27;20476;-62
2022/08/18 03:59:08;;;;;;;4.80;3.00;;;30.00;69.70;;;;;;5143962;27;20546;-62
2022/08/18 04:01:41;;;;;;;3.27;3.07;;;30.00;69.70;;;;;;5129836;27;20478;-62
2022/08/18 04:04:15;;;;;;;3.23;3.03;;;30.10;70.10;;;;;;5137707;27;20493;-62
2022/08/18 04:06:50;;;;;;;3.90;3.60;;;30.10;69.90;;;;;;5111621;28;20467;-62
2022/08/18 04:09:23;;;;;;;4.50;4.10;;;30.10;70.20;;;;;;5124362;27;20458;-62
2022/08/18 04:11:56;;;;;;;3.80;3.50;;;29.90;73.00;;;;;;5118957;27;20481;-62
2022/08/18 04:14:30;;;;;;;3.80;3.47;;;29.70;73.60;;;;;;5123986;27;20483;-62
2022/08/18 04:17:00;;;;;;;3.00;2.80;;;29.50;74.90;;;;;;5106480;28;20459;-63
2022/08/18 04:19:33;;;;;;;2.67;2.47;;;29.30;77.80;;;;;;5130477;27;20900;-63
2022/08/18 04:22:05;;;;;;;3.40;3.10;;;29.20;78.20;;;;;;5126351;27;20495;-62
2022/08/18 04:24:35;;;;;;;2.93;2.73;;;29.10;77.10;;;;;;5113175;27;20905;-62
2022/08/18 04:27:11;;;;;;;3.33;2.73;;;29.00;78.30;;;;;;5104926;28;20468;-63
2022/08/18 04:29:42;;;;;;;3.13;2.93;;;28.90;76.90;;;;;;5133102;27;20462;-63
2022/08/18 04:32:13;;;;;;;2.80;2.60;;;28.90;77.20;;;;;;5134596;27;20453;-63
2022/08/18 04:34:43;;;;;;;2.73;2.53;;;28.80;77.20;;;;;;5126484;27;20461;-63
2022/08/18 04:37:14;;;;;;;2.70;2.50;;;28.80;77.60;;;;;;5129325;27;20458;-63
2022/08/18 04:39:46;;;;;;;5.03;3.17;;;28.90;78.20;;;;;;5127580;27;21039;-62
2022/08/18 04:42:18;;;;;;;2.90;2.70;;;28.90;74.90;;;;;;5137456;27;20985;-63
2022/08/18 04:44:50;;;;;;;2.80;2.60;;;28.90;73.80;;;;;;5123251;27;20527;-64
2022/08/18 04:47:21;;;;;;;2.63;2.43;;;29.00;72.40;;;;;;5135381;27;20461;-62
2022/08/18 04:49:51;;;;;;;2.70;2.50;;;29.20;73.10;;;;;;5136761;27;20442;-63
2022/08/18 04:55:11;;;;;;;3.47;2.23;;;29.20;74.50;;;;;;5110145;28;20540;-62
2022/08/18 04:57:44;;;;;;;2.80;2.60;;;29.20;71.40;;;;;;5114529;28;20481;-63
2022/08/18 05:00:16;;;;;;;2.73;2.53;;;29.30;71.20;;;;;;5124022;27;20506;-63
2022/08/18 05:02:48;;;;;;;3.20;3.00;;;29.20;72.80;;;;;;5127897;27;20985;-63
2022/08/18 05:05:19;;;;;;;3.03;2.83;;;29.10;73.40;;;;;;5119880;27;21003;-62
2022/08/18 05:07:49;;;;;;;2.80;2.60;;;28.90;74.00;;;;;;5123581;27;20487;-62
2022/08/18 05:10:20;;;;;;;3.97;3.00;;;28.80;74.60;;;;;;5119741;27;20462;-63
2022/08/18 05:12:53;;;;;;;2.63;2.43;;;28.70;75.10;;;;;;5123042;27;20466;-63
2022/08/18 05:15:24;;;;;;;2.80;2.60;;;28.60;78.90;;;;;;5137301;27;21000;-63
2022/08/18 05:17:55;;;;;;;2.77;2.60;;;28.50;80.20;;;;;;5122580;28;20454;-62
2022/08/18 05:20:27;;;;;;;3.23;2.93;;;28.40;81.70;;;;;;5117794;28;20454;-63
2022/08/18 05:22:58;;;;;;;2.97;2.80;;;28.30;81.00;;;;;;5141501;27;20512;-63
2022/08/18 05:25:29;;;;;;;3.17;2.97;;;28.20;81.50;;;;;;5138084;27;20450;-63
2022/08/18 05:28:02;;;;;;;2.87;2.60;;;28.10;80.10;;;;;;5141501;28;20483;-63
2022/08/18 05:30:32;;;;;;;2.90;2.70;;;28.00;80.10;;;;;;5132215;27;20458;-63
2022/08/18 05:33:03;;;;;;;3.27;2.97;;;28.00;80.90;;;;;;5141152;27;20445;-63
2022/08/18 05:35:41;;;;;;;2.70;2.50;;;27.90;81.30;;;;;;5136746;27;20457;-63
2022/08/18 05:38:25;;;;;;;3.30;3.00;;;27.80;80.30;;;;;;5119758;28;20450;-63
2022/08/18 05:41:07;;;;;;;2.90;2.70;;;28.10;77.40;;;;;;5127039;28;20469;-62
2022/08/18 05:43:47;;;;;;;2.90;2.70;;;28.30;75.50;;;;;;5119386;28;20558;-63
2022/08/18 05:46:26;;;;;;;2.80;2.60;;;28.40;75.80;;;;;;5118643;28;20456;-63
2022/08/18 05:48:57;;;;;;;2.63;2.43;;;28.60;72.70;;;;;;5123680;28;20462;-63
2022/08/18 05:51:35;;;;;;;2.60;2.40;;;28.70;72.60;;;;;;5127975;27;20511;-62
2022/08/18 05:56:58;;;;;;;2.57;2.37;;;28.70;72.70;;;;;;5119291;28;20545;-62
2022/08/18 05:59:34;;;;;;;3.10;2.50;;;28.60;73.20;;;;;;5116720;28;20505;-62
2022/08/18 06:02:12;;;;;;;2.33;2.23;;;28.50;72.90;;;;;;5131059;28;20556;-62
2022/08/18 06:04:49;;;;;;;2.67;2.47;;;28.40;74.20;;;;;;5130358;28;20799;-63
2022/08/18 06:07:25;;;;;;;2.30;2.10;;;28.30;75.90;;;;;;5128978;27;20454;-63
2022/08/18 06:10:04;;;;;;;2.17;2.07;;;28.20;77.10;;;;;;5124394;27;20443;-63
2022/08/18 06:12:36;;;;;;;2.70;2.50;;;28.10;79.60;;;;;;5135424;27;20521;-62
2022/08/18 06:15:20;;;;;;;3.10;2.87;;;28.00;78.90;;;;;;5135564;27;20447;-62
2022/08/18 06:18:27;;;;;;;2.90;2.70;;;27.90;77.80;;;;;;5122580;27;20465;-62
2022/08/18 06:21:22;;;;;;;2.70;2.50;;;28.10;76.50;;;;;;5115998;27;20468;-63
2022/08/18 06:24:01;;;;;;;2.50;2.30;;;28.20;76.80;;;;;;5115007;27;20590;-63
2022/08/18 06:26:48;;;;;;;2.73;2.53;;;28.20;77.20;;;;;;5112149;27;20456;-62
2022/08/18 06:29:38;;;;;;;2.60;2.40;;;28.00;80.60;;;;;;5111040;27;20470;-63
2022/08/18 06:32:22;;;;;;;3.90;3.30;;;27.90;79.90;;;;;;5130028;27;20466;-63
2022/08/18 06:35:08;;;;;;;2.70;2.53;;;27.70;81.00;;;;;;5127879;27;20494;-63
2022/08/18 06:40:30;;;;;;;2.37;2.20;;;27.50;83.40;;;;;;5117831;27;20452;-63
2022/08/18 06:43:01;;;;;;;3.20;2.90;;;27.40;85.80;;;;;;5132718;27;20493;-62
2022/08/18 06:45:35;;;;;;;3.13;2.80;;;27.40;83.00;;;;;;5110050;27;20467;-63
2022/08/18 06:48:17;;;;;;;3.07;2.87;;;27.40;81.90;;;;;;5109923;27;20466;-63
2022/08/18 06:50:52;;;;;;;2.80;2.60;;;27.40;81.10;;;;;;5121008;27;20470;-63
2022/08/18 06:53:23;;;;;;;2.80;2.60;;;27.40;81.50;;;;;;5113071;27;20458;-63
2022/08/18 06:55:57;;;;;;;2.83;2.53;;;27.30;85.90;;;;;;5112949;27;20588;-63
2022/08/18 06:58:30;;;;;;;3.37;3.07;;;27.20;87.60;;;;;;5110126;27;20883;-62
2022/08/18 07:01:03;;;;;;;2.93;2.73;;;27.10;83.80;;;;;;5110887;27;20970;-62
2022/08/18 07:03:57;;;;;;;3.30;3.00;;;27.10;84.30;;;;;;5116813;27;20497;-63
2022/08/18 07:06:31;;;;;;;3.50;2.83;;;27.00;84.70;;;;;;5114940;27;20465;-62
2022/08/18 07:09:23;;;;;;;2.73;2.53;;;26.90;89.10;;;;;;5114126;27;20791;-62
2022/08/18 07:12:05;;;;;;;3.50;3.20;;;26.80;90.40;;;;;;5132536;27;20473;-63
2022/08/18 07:14:45;;;;;;;3.27;3.07;;;26.70;90.80;;;;;;5107461;27;20482;-62
2022/08/18 07:17:22;;;;;;;3.00;2.80;;;26.50;90.20;;;;;;5116029;27;20462;-63
2022/08/18 07:20:23;;;;;;;2.60;2.40;;;26.50;90.20;;;;;;5122349;27;20597;-63
2022/08/18 07:22:57;;;;;;;3.07;2.73;;;26.50;90.60;;;;;;5125880;27;20472;-62
2022/08/18 07:25:32;;;;;;;3.27;3.00;;;26.40;91.30;;;;;;5108691;27;20506;-62
2022/08/18 07:28:03;;;;;;;3.00;2.80;;;26.40;91.10;;;;;;5107904;28;20577;-62
2022/08/18 07:30:36;;;;;;;3.70;3.40;;;26.30;92.30;;;;;;5109002;27;20473;-63
2022/08/18 07:33:22;;;;;;;3.27;3.07;;;26.30;91.60;;;;;;5128439;27;20465;-62
2022/08/18 07:36:02;;;;;;;3.23;3.03;;;26.30;91.40;;;;;;5105749;27;20460;-62
2022/08/18 07:38:37;;;;;;;3.70;3.40;;;26.30;91.70;;;;;;5108200;28;20571;-63
2022/08/18 07:41:19;;;;;;;4.50;2.70;;;26.30;93.00;;;;;;5119344;27;20550;-62
2022/08/18 07:44:00;;;;;;;3.00;2.80;;;26.20;93.70;;;;;;5127304;27;20497;-62
2022/08/18 07:46:37;;;;;;;3.53;3.30;;;26.10;94.90;;;;;;5133254;27;20469;-62
2022/08/18 07:49:07;;;;;;;3.53;3.10;;;26.10;93.00;;;;;;5116476;27;20472;-62
2022/08/18 07:51:49;;;;;;;4.17;3.77;;;26.20;93.20;;;;;;5136443;27;20454;-63
2022/08/18 07:54:44;;;;;;;3.23;3.03;;;26.10;94.50;;;;;;5109926;27;20503;-63
2022/08/18 07:57:25;;;;;;;3.63;3.33;;;26.10;96.00;;;;;;5124860;27;20480;-62
2022/08/18 08:00:08;;;;;;;3.43;3.13;;;26.00;96.50;;;;;;5115555;27;20458;-63
2022/08/18 08:03:07;;;;;;;3.60;3.30;;;25.90;96.50;;;;;;5121026;27;20802;-63
2022/08/18 08:05:48;;;;;;;3.33;3.03;;;25.90;96.50;;;;;;5126393;27;20485;-63
2022/08/18 08:08:30;;;;;;;3.30;3.10;;;25.90;97.10;;;;;;5116790;27;20525;-63
2022/08/18 08:11:11;;;;;;;3.33;3.10;;;25.90;96.80;;;;;;5103125;28;20473;-62
2022/08/18 08:13:56;;;;;;;3.27;3.07;;;25.90;96.80;;;;;;5135198;27;21234;-62
2022/08/18 08:16:38;;;;;;;3.07;2.87;;;25.90;97.90;;;;;;5116124;28;20464;-62
2022/08/18 08:19:25;;;;;;;3.60;3.30;;;25.80;98.50;;;;;;5116147;27;20470;-62
2022/08/18 08:22:21;;;;;;;2.77;2.57;;;25.80;98.90;;;;;;5120527;27;20468;-63
2022/08/18 08:25:02;;;;;;;3.10;2.90;;;25.70;98.20;;;;;;5122206;27;20499;-62
2022/08/18 08:27:49;;;;;;;3.30;3.00;;;25.60;97.90;;;;;;5108447;27;20469;-62
2022/08/18 08:30:22;;;;;;;2.90;2.70;;;25.60;99.10;;;;;;5121920;27;20461;-63
2022/08/18 08:33:08;;;;;;;3.20;3.00;;;25.50;98.90;;;;;;5127109;27;20470;-62
2022/08/18 08:35:49;;;;;;;3.37;3.17;;;25.50;98.70;;;;;;5140483;27;20447;-62
2022/08/18 08:38:23;;;;;;;3.33;3.13;;;25.50;99.10;;;;;;5119924;27;20464;-62
2022/08/18 08:41:24;;;;;;;4.40;3.53;;;25.40;99.90;;;;;;5117591;27;20836;-62
2022/08/18 08:44:10;;;;;;;3.20;2.90;;;25.30;99.90;;;;;;5123941;27;20486;-62
2022/08/18 08:46:46;;;;;;;3.50;3.20;;;25.30;99.90;;;;;;5121656;28;20461;-63
2022/08/18 08:49:34;;;;;;;3.93;3.63;;;25.10;99.90;;;;;;5127992;27;20461;-62
2022/08/18 08:52:10;;;;;;;3.60;3.30;;;25.00;99.90;;;;;;5121121;28;20456;-63
2022/08/18 08:54:49;;;;;;;3.00;2.80;;;25.00;99.90;;;;;;5118182;28;20462;-63
2022/08/18 08:57:27;;;;;;;3.93;3.63;;;24.90;99.90;;;;;;5107694;28;20557;-62
2022/08/18 09:00:02;;;;;;;3.43;3.23;;;24.90;99.90;;;;;;5139624;27;20447;-62
2022/08/18 09:02:59;;;;;;;3.57;3.27;;;24.80;99.90;;;;;;5122621;27;20467;-62
2022/08/18 09:05:35;;;;;;;3.13;2.93;;;24.80;99.90;;;;;;5108187;27;20973;-63
2022/08/18 09:08:20;;;;;;;3.67;3.37;;;24.80;99.90;;;;;;5119275;27;20943;-63
2022/08/18 09:11:21;;;;;;;3.97;3.67;;;24.80;99.90;;;;;;5140100;27;22728;-62
2022/08/18 09:14:24;;;;;;;3.83;3.53;;;24.90;99.90;;;;;;5116196;27;20495;-63
2022/08/18 09:17:12;;;;;;;3.10;2.90;;;24.90;99.90;;;;;;5104181;28;20489;-62
2022/08/18 09:20:01;;;;;;;3.70;3.40;;;24.70;99.90;;;;;;5123326;28;20511;-63
2022/08/18 09:22:42;;;;;;;3.97;3.60;;;24.60;99.90;;;;;;5108370;28;20463;-63
2022/08/18 09:25:30;;;;;;;5.77;3.50;;;24.50;99.90;;;;;;5120328;28;20904;-63
2022/08/18 09:28:13;;;;;;;3.73;3.43;;;24.50;99.90;;;;;;5125814;27;20466;-63
2022/08/18 09:30:52;;;;;;;3.50;3.30;;;24.50;99.90;;;;;;5107633;28;20527;-63
2022/08/18 09:33:49;;;;;;;3.47;3.17;;;24.50;99.90;;;;;;5107817;28;20476;-62
2022/08/18 09:36:34;;;;;;;3.43;3.23;;;24.60;99.90;;;;;;5127105;28;20460;-62
2022/08/18 09:42:13;;;;;;;3.53;3.30;;;24.40;99.90;;;;;;5122019;28;20453;-62
2022/08/18 09:45:05;;;;;;;4.10;3.00;;;24.30;99.90;;;;;;5127788;27;20569;-62
2022/08/18 09:48:00;;;;;;;4.43;4.10;;;24.20;99.90;;;;;;5126412;27;20451;-63
2022/08/18 09:50:54;;;;;;;4.37;4.07;;;24.20;99.90;;;;;;5112533;28;20465;-62
2022/08/18 09:54:06;;;;;;;3.70;3.40;;;24.00;99.90;;;;;;5120134;27;20460;-62
2022/08/18 09:57:18;;;;;;;4.00;3.70;;;24.00;99.90;;;;;;5112776;27;20474;-62
2022/08/18 09:59:55;;;;;;;3.80;3.50;;;23.90;99.90;;;;;;5140397;27;20448;-62
2022/08/18 10:03:11;;;;;;;3.57;3.23;;;23.90;99.90;;;;;;5132523;27;20547;-62
2022/08/18 10:06:05;;;;;;;4.23;3.90;;;23.90;99.90;;;;;;5127343;27;20497;-62
2022/08/18 10:09:23;;;;;;;3.60;3.30;;;23.80;99.90;;;;;;5141778;27;20449;-62
2022/08/18 10:12:33;;;;;;;4.60;4.20;;;23.70;99.90;;;;;;5118447;27;20547;-62
2022/08/18 10:15:25;;;;;;;4.40;4.03;;;23.60;99.90;;;;;;5122848;27;20813;-62
2022/08/18 10:18:24;;;;;;;3.70;3.40;;;23.60;99.90;;;;;;5117226;27;20453;-63
2022/08/18 10:21:10;;;;;;;4.03;3.73;;;23.60;99.90;;;;;;5130115;27;20447;-62
2022/08/18 10:24:00;;;;;;;4.20;3.90;;;23.50;99.90;;;;;;5114659;27;20470;-63
2022/08/18 10:27:12;;;;;;;4.10;3.77;;;23.50;99.90;;;;;;5123138;27;20556;-63
2022/08/18 10:29:50;;;;;;;4.97;4.57;;;23.40;99.90;;;;;;5113447;28;20481;-63
2022/08/18 10:32:45;;;;;;;4.40;4.00;;;23.30;99.90;;;;;;5113631;28;20533;-63
2022/08/18 10:36:07;;;;;;;4.00;3.70;;;23.30;99.90;;;;;;5123844;27;20469;-63
2022/08/18 10:38:52;;;;;;;3.83;3.47;;;23.20;99.90;;;;;;5112617;27;20497;-63
2022/08/18 10:41:29;;;;;;;4.30;4.00;;;23.20;99.90;;;;;;5123462;28;20561;-63
2022/08/18 10:44:01;;;;;;;4.20;3.90;;;23.20;99.90;;;;;;5131011;27;20483;-62
2022/08/18 10:46:53;;;;;;;4.13;3.83;;;23.30;99.90;;;;;;5127961;27;21032;-63
2022/08/18 10:49:27;;;;;;;4.70;4.30;;;23.40;99.90;;;;;;5116963;27;20459;-62
2022/08/18 10:52:35;;;;;;;4.73;4.27;;;23.40;99.90;;;;;;5123522;28;20460;-62
2022/08/18 10:55:28;;;;;;;4.03;3.73;;;23.40;99.90;;;;;;5129501;27;20552;-63
2022/08/18 10:58:29;;;;;;;4.90;4.40;;;23.40;99.90;;;;;;5112863;28;20493;-63
2022/08/18 11:01:16;;;;;;;4.40;4.10;;;23.40;99.90;;;;;;5119277;27;20466;-63
2022/08/18 11:04:06;;;;;;;4.77;4.37;;;23.50;99.90;;;;;;5128681;27;20559;-63
2022/08/18 11:06:58;;;;;;;4.63;4.23;;;23.40;99.90;;;;;;5122823;27;20493;-63
2022/08/18 11:09:31;;;;;;;3.73;3.53;;;23.40;99.90;;;;;;5136100;27;20488;-64
2022/08/18 11:12:05;;;;;;;4.33;4.00;;;23.50;99.90;;;;;;5127352;27;20457;-63
2022/08/18 11:15:10;;;;;;;4.33;4.00;;;23.50;99.90;;;;;;5116931;27;20444;-63
2022/08/18 11:18:16;;;;;;;3.90;3.60;;;23.40;99.90;;;;;;5126402;27;20448;-64
2022/08/18 11:20:50;;;;;;;4.30;3.93;;;23.40;99.90;;;;;;5119266;27;20581;-64
2022/08/18 11:23:21;;;;;;;3.70;3.47;;;23.40;99.90;;;;;;5126571;27;20463;-63
2022/08/18 11:25:52;;;;;;;4.90;4.40;;;23.40;99.90;;;;;;5127389;27;20528;-63
2022/08/18 11:28:30;;;;;;;4.20;3.90;;;23.40;99.90;;;;;;5125162;27;20473;-63
2022/08/18 11:31:04;;;;;;;4.47;4.17;;;23.40;99.90;;;;;;5114632;27;20527;-64
2022/08/18 11:33:41;;;;;;;4.40;4.10;;;23.40;99.90;;;;;;5123859;27;21273;-63
2022/08/18 11:36:12;;;;;;;4.40;4.10;;;23.30;99.90;;;;;;5135457;27;20454;-63
2022/08/18 11:38:54;;;;;;;4.60;4.30;;;23.30;99.90;;;;;;5118949;27;20458;-63
2022/08/18 11:41:28;;;;;;;4.37;4.13;;;23.30;99.90;;;;;;5116905;28;20787;-63
2022/08/18 11:44:23;;;;;;;4.67;4.30;;;23.20;99.90;;;;;;5131826;27;20964;-63
2022/08/18 11:46:57;;;;;;;4.27;3.87;;;23.20;99.90;;;;;;5110965;28;20485;-63
2022/08/18 11:49:32;;;;;;;4.00;3.73;;;23.10;99.90;;;;;;5121218;28;20458;-63
2022/08/18 11:52:16;;;;;;;4.57;4.27;;;23.10;99.90;;;;;;5122252;27;20466;-63
2022/08/18 11:55:02;;;;;;;4.60;4.20;;;23.10;99.90;;;;;;5119262;27;20452;-63
2022/08/18 11:57:53;;;;;;;4.43;4.10;;;23.10;99.90;;;;;;5119101;27;20466;-63
2022/08/18 12:00:57;;;;;;;3.90;3.60;;;23.10;99.90;;;;;;5119429;27;20485;-63
2022/08/18 12:03:40;;;;;;;4.80;4.43;;;23.00;99.90;;;;;;5114166;27;20536;-64
2022/08/18 12:06:22;;;;;;;5.37;4.60;;;23.00;99.90;;;;;;5122137;27;21312;-63
2022/08/18 12:09:19;;;;;;;3.97;3.67;;;23.00;99.90;;;;;;5127593;27;20527;-63
2022/08/18 12:12:17;;;;;;;4.63;4.33;;;22.90;99.90;;;;;;5135068;27;20454;-63
2022/08/18 12:14:56;;;;;;;4.13;3.83;;;22.90;99.90;;;;;;5121296;27;20480;-63
2022/08/18 12:17:50;;;;;;;4.97;4.60;;;22.90;99.90;;;;;;5110288;27;20469;-63
2022/08/18 12:20:23;;;;;;;4.67;4.37;;;22.90;99.90;;;;;;5119074;28;20770;-63
2022/08/18 12:22:57;;;;;;;4.93;4.50;;;22.90;99.90;;;;;;5121062;27;20464;-63
2022/08/18 12:25:28;;;;;;;5.13;4.43;;;22.80;99.90;;;;;;5117003;27;20920;-63
2022/08/18 12:27:59;;;;;;;4.97;4.67;;;22.80;99.90;;;;;;5118421;27;20457;-63
2022/08/18 12:30:30;;;;;;;4.03;3.73;;;22.70;99.90;;;;;;5121868;28;20458;-63
2022/08/18 12:33:02;;;;;;;3.80;3.60;;;22.70;99.90;;;;;;5104521;27;20461;-63
2022/08/18 12:35:39;;;;;;;4.57;4.27;;;22.70;99.90;;;;;;5116243;27;20480;-63
2022/08/18 12:38:11;;;;;;;4.77;4.33;;;22.70;99.90;;;;;;5120317;27;20462;-63
2022/08/18 12:40:45;;;;;;;4.00;3.70;;;22.60;99.90;;;;;;5139323;27;20465;-63
2022/08/18 12:43:15;;;;;;;4.67;4.37;;;22.60;99.90;;;;;;5124158;27;20488;-64
2022/08/18 12:45:48;;;;;;;5.07;4.67;;;22.60;99.90;;;;;;5118634;27;20624;-63
2022/08/18 12:48:21;;;;;;;6.57;5.23;;;22.50;99.90;;;;;;5130336;27;20449;-63
2022/08/18 12:50:55;;;;;;;5.53;5.03;;;22.40;99.90;;;;;;5135654;27;20457;-63
2022/08/18 12:53:28;;;;;;;5.23;4.83;;;22.50;99.90;;;;;;5114440;28;20462;-63
2022/08/18 12:56:23;;;;;;;5.20;4.70;;;22.50;99.90;;;;;;5123985;27;20470;-63
2022/08/18 12:58:54;;;;;;;6.33;5.73;;;22.40;99.90;;;;;;5114656;28;20821;-63
2022/08/18 13:01:26;;;;;;;4.63;4.33;;;22.40;99.90;;;;;;5119693;27;20502;-64
2022/08/18 13:04:00;;;;;;;5.33;4.93;;;22.30;99.90;;;;;;5116168;27;20480;-63
2022/08/18 13:06:45;;;;;;;4.87;4.47;;;22.30;99.90;;;;;;5122640;27;20530;-63
2022/08/18 13:09:31;;;;;;;4.80;4.40;;;22.30;99.90;;;;;;5112929;27;20465;-63
2022/08/18 13:12:24;;;;;;;6.47;5.83;;;22.30;99.90;;;;;;5132473;27;20458;-64
2022/08/18 13:14:57;;;;;;;6.60;6.00;;;22.30;99.90;;;;;;5124732;27;20547;-63
2022/08/18 13:17:28;;;;;;;5.67;5.27;;;22.40;99.90;;;;;;5121176;27;20487;-63
2022/08/18 13:20:08;;;;;;;5.53;5.07;;;22.40;99.90;;;;;;5122771;27;20500;-63
2022/08/18 13:22:39;;;;;;;5.57;5.13;;;22.40;99.90;;;;;;5121872;27;20543;-63
2022/08/18 13:25:13;;;;;;;6.30;5.77;;;22.40;99.90;;;;;;5110242;28;20453;-63
2022/08/18 13:28:00;;;;;;;5.53;5.03;;;22.40;99.90;;;;;;5118728;27;20494;-63
2022/08/18 13:30:32;;;;;;;5.40;5.00;;;22.40;99.90;;;;;;5102844;28;21282;-63
2022/08/18 13:33:04;;;;;;;5.77;5.27;;;22.40;99.90;;;;;;5111250;28;20557;-63
2022/08/18 13:35:57;;;;;;;5.60;5.10;;;22.40;99.90;;;;;;5137580;28;20472;-63
2022/08/18 13:38:29;;;;;;;5.93;5.53;;;22.40;99.90;;;;;;5138957;27;20450;-63
2022/08/18 13:41:03;;;;;;;5.80;5.30;;;22.40;99.90;;;;;;5131487;28;20441;-64
2022/08/18 13:43:38;;;;;;;6.20;5.70;;;22.40;99.90;;;;;;5143528;28;20436;-63
2022/08/18 13:46:12;;;;;;;5.10;4.60;;;22.40;99.90;;;;;;5129134;27;20453;-63
2022/08/18 13:48:46;;;;;;;5.63;5.13;;;22.40;99.90;;;;;;5122531;28;20461;-63
2022/08/18 13:51:23;;;;;;;5.77;5.27;;;22.40;99.90;;;;;;5124336;27;20482;-63
2022/08/18 13:53:54;;;;;;;5.00;4.60;;;22.60;99.90;;;;;;5142620;27;20448;-63
2022/08/18 13:56:45;;;;;;;5.83;5.33;;;22.60;99.90;;;;;;5141656;27;20452;-63
2022/08/18 13:59:22;;;;;;;5.20;4.80;;;22.70;99.90;;;;;;5119497;28;20437;-64
2022/08/18 14:01:53;;;;;;;5.60;5.10;;;22.80;99.90;;;;;;5125860;28;20448;-63
2022/08/18 14:04:25;;;;;;;5.60;5.10;;;22.90;99.90;;;;;;5122007;28;20462;-63